Home PIREPS Pireps

Flight BEL2174

  • Submitted By: Stijn Mertens
  • Departure Airport: Manchester Airport (EGCC)
  • Arrival Airport: Bruxelles National (EBBR)
  • Aircraft: BAE AVRO RJ1 (OO-DWA)
  • Flight Time: 01.05
  • Date Submitted: 11/02/2016
  • Status: Accepted
Flight Details
Gross Revenue:
(76 load / € 72.00 per unit
€ 5,472.00
Fuel Cost:
(2979 fuel used @ 5.1 / unit)
€ 15,192.90

Additional Log Information:

View Log

Aircraft Used in flight is Airbus A320 NEO Wizz Air UR-WUC
12:22 Brakes are On
12:31 Brakes are Released
12:32 Brakes are On
12:35 Brakes are Released
12:39 You Took off @ 170 Knots and Flaps at Position 2
Departure Weather
EGCC 111120Z 20005KT 9999 FEW028 06/03 Q1003 NOSIGrn
12:39 Landing Gear Up @ 185 Knots and 360 Feet
12:39 You exceeded maximum bank angle
12:42 Above FL100 you need to switch of the landing lights
13:24 Landing Gear Down @ 170 Knots and 1900 Feet
13:27 You Landed @ 132 Knots and with -250 Vertical Speed
Arrival Weather
EBBR 111150Z 23010KT 9999 FEW013 SCT048 06/03 Q1005 NOSIGrn
13:27 Brakes are On
13:27 Brussels Bel-Track1.0.1.2

Route Map

Corporate About Us Our Team Vacancies Information Fleet Route Network Rules and Regulations Operations Flight Schedules Event Center Tours Partners IVAO Vatsim Acars dev FSCB

fb Users Online No pilots online!
0 Pilot(s) and 180 Guest(s) Online
CMS by phpVMS - Design by Crazycreatives.com - Copyright © 2020 - Brussels Airlines Virtual